createdAt,value
2022-09-04T00:01:45.038Z,5.70
2022-09-04T00:04:26.181Z,5.20
2022-09-04T00:07:09.494Z,4.90
2022-09-04T00:09:52.927Z,4.90
2022-09-04T00:12:31.320Z,5.00
2022-09-04T00:15:12.232Z,4.70
2022-09-04T00:17:52.560Z,4.20
2022-09-04T00:20:35.856Z,4.00
2022-09-04T00:23:14.784Z,4.90
2022-09-04T00:25:57.403Z,4.30
2022-09-04T00:28:36.379Z,4.70
2022-09-04T00:31:19.760Z,4.30
2022-09-04T00:34:07.408Z,4.50
2022-09-04T00:36:48.169Z,4.70
2022-09-04T00:39:38.100Z,4.30
2022-09-04T00:42:26.782Z,6.00
2022-09-04T00:45:14.659Z,7.50
2022-09-04T00:48:11.143Z,5.60
2022-09-04T00:51:08.186Z,5.60
2022-09-04T00:53:52.596Z,5.30
2022-09-04T00:56:52.671Z,4.40
2022-09-04T00:59:39.839Z,4.10
2022-09-04T01:02:19.235Z,4.70
2022-09-04T01:05:08.281Z,4.30
2022-09-04T01:07:56.759Z,4.30
2022-09-04T01:10:36.526Z,4.50
2022-09-04T01:13:13.910Z,4.60
2022-09-04T01:15:52.763Z,4.40
2022-09-04T01:18:32.718Z,4.30
2022-09-04T01:21:23.593Z,7.50
2022-09-04T01:24:21.669Z,7.00
2022-09-04T01:27:00.948Z,6.20
2022-09-04T01:29:42.684Z,5.40
2022-09-04T01:32:25.569Z,5.20
2022-09-04T01:35:09.949Z,5.30
2022-09-04T01:37:52.755Z,5.00
2022-09-04T01:40:36.111Z,5.00
2022-09-04T01:43:12.497Z,4.90
2022-09-04T01:46:06.357Z,5.90
2022-09-04T01:48:47.274Z,5.20
2022-09-04T01:51:26.238Z,5.60
2022-09-04T01:54:18.906Z,5.10
2022-09-04T01:57:08.445Z,5.80
2022-09-04T01:59:53.091Z,5.50
2022-09-04T02:02:34.136Z,5.80
2022-09-04T02:05:15.805Z,7.00
2022-09-04T02:07:51.653Z,6.30
2022-09-04T02:10:36.694Z,6.10
2022-09-04T02:13:22.433Z,6.50
2022-09-04T02:16:04.378Z,6.20
2022-09-04T02:18:45.496Z,6.50
2022-09-04T02:21:27.140Z,7.00
2022-09-04T02:26:43.824Z,6.20
2022-09-04T02:29:23.115Z,6.30
2022-09-04T02:32:01.248Z,6.40
2022-09-04T02:34:41.878Z,5.90
2022-09-04T02:37:24.214Z,5.90
2022-09-04T02:40:04.237Z,6.50
2022-09-04T02:42:50.435Z,6.40
2022-09-04T02:45:34.701Z,6.00
2022-09-04T02:48:14.360Z,7.20
2022-09-04T02:51:00.692Z,6.60
2022-09-04T02:53:39.842Z,6.70
2022-09-04T02:56:24.020Z,6.60
2022-09-04T02:59:11.583Z,7.70
2022-09-04T03:01:51.865Z,6.90
2022-09-04T03:04:31.744Z,7.40
2022-09-04T03:07:10.837Z,7.70
2022-09-04T03:09:48.512Z,6.70
2022-09-04T03:12:33.142Z,7.40
2022-09-04T03:15:15.305Z,6.90
2022-09-04T03:17:55.358Z,7.20
2022-09-04T03:20:29.655Z,6.70
2022-09-04T03:23:09.009Z,7.40
2022-09-04T03:25:55.330Z,6.90
2022-09-04T03:28:36.979Z,7.50
2022-09-04T03:33:53.795Z,12.40
2022-09-04T03:36:37.147Z,8.10
2022-09-04T03:39:17.621Z,8.40
2022-09-04T03:41:58.921Z,8.70
2022-09-04T03:44:44.811Z,8.40
2022-09-04T03:47:25.437Z,8.10
2022-09-04T03:50:06.365Z,8.60
2022-09-04T03:52:50.532Z,8.50
2022-09-04T03:55:56.556Z,8.40
2022-09-04T03:58:38.176Z,8.40
2022-09-04T04:04:00.154Z,8.00
2022-09-04T04:06:39.109Z,9.40
2022-09-04T04:09:31.555Z,7.60
2022-09-04T04:12:27.500Z,8.90
2022-09-04T04:15:13.576Z,9.80
2022-09-04T04:18:04.390Z,9.00
2022-09-04T04:20:45.606Z,8.90
2022-09-04T04:23:50.173Z,9.40
2022-09-04T04:26:30.740Z,9.00
2022-09-04T04:29:21.342Z,8.20
2022-09-04T04:32:13.754Z,9.30
2022-09-04T04:35:03.444Z,9.60
2022-09-04T04:37:44.511Z,9.80
2022-09-04T04:40:25.746Z,9.20
2022-09-04T04:43:06.408Z,9.80
2022-09-04T04:45:54.829Z,9.90
2022-09-04T04:48:56.965Z,9.10
2022-09-04T04:51:51.056Z,9.90
2022-09-04T04:54:39.155Z,10.10
2022-09-04T04:57:21.892Z,10.50
2022-09-04T05:00:06.511Z,11.70
2022-09-04T05:02:49.277Z,11.60
2022-09-04T05:05:29.634Z,11.00
2022-09-04T05:08:08.656Z,11.70
2022-09-04T05:10:46.435Z,10.60
2022-09-04T05:13:25.242Z,10.50
2022-09-04T05:16:09.513Z,10.60
2022-09-04T05:18:52.048Z,11.20
2022-09-04T05:21:30.098Z,11.50
2022-09-04T05:24:08.406Z,9.80
2022-09-04T05:26:50.378Z,10.70
2022-09-04T05:29:32.652Z,11.60
2022-09-04T05:32:19.045Z,11.10
2022-09-04T05:35:05.340Z,10.70
2022-09-04T05:37:43.997Z,9.80
2022-09-04T05:40:29.514Z,10.80
2022-09-04T05:43:17.920Z,9.90
2022-09-04T05:46:05.948Z,10.60
2022-09-04T05:48:47.546Z,10.20
2022-09-04T05:51:55.138Z,10.50
2022-09-04T05:54:58.626Z,10.00
2022-09-04T05:57:42.777Z,9.70
2022-09-04T06:00:17.448Z,9.60
2022-09-04T06:03:33.366Z,8.40
2022-09-04T06:06:18.068Z,8.20
2022-09-04T06:09:20.015Z,8.30
2022-09-04T06:12:08.548Z,7.90
2022-09-04T06:15:02.733Z,7.20
2022-09-04T06:17:50.764Z,8.30
2022-09-04T06:20:43.034Z,7.30
2022-09-04T06:23:30.919Z,6.60
2022-09-04T06:26:27.678Z,7.00
2022-09-04T06:29:16.005Z,6.90
2022-09-04T06:32:04.470Z,8.70
2022-09-04T06:34:58.973Z,6.10
2022-09-04T06:37:38.471Z,6.70
2022-09-04T06:40:38.983Z,6.30
2022-09-04T06:43:22.108Z,6.40
2022-09-04T06:46:07.216Z,7.10
2022-09-04T06:48:53.126Z,5.60
2022-09-04T06:51:39.655Z,5.10
2022-09-04T06:54:27.881Z,5.10
2022-09-04T06:57:19.081Z,4.70
2022-09-04T07:00:06.020Z,4.60
2022-09-04T07:03:13.701Z,4.10
2022-09-04T07:05:55.303Z,4.40
2022-09-04T07:08:44.110Z,4.90
2022-09-04T07:11:30.554Z,4.20
2022-09-04T07:14:31.563Z,3.80
2022-09-04T07:17:12.305Z,3.60
2022-09-04T07:20:04.484Z,3.90
2022-09-04T07:23:16.952Z,4.20
2022-09-04T07:26:00.665Z,3.40
2022-09-04T07:29:03.140Z,3.10
2022-09-04T07:31:43.019Z,2.70
2022-09-04T07:34:24.982Z,3.40
2022-09-04T07:37:01.538Z,3.00
2022-09-04T07:39:39.657Z,2.80
2022-09-04T07:42:17.078Z,2.50
2022-09-04T07:45:00.698Z,2.50
2022-09-04T07:47:38.602Z,2.20
2022-09-04T07:50:16.659Z,2.50
2022-09-04T07:53:08.300Z,2.30
2022-09-04T07:55:46.821Z,2.40
2022-09-04T07:58:45.663Z,2.60
2022-09-04T08:01:37.058Z,2.60
2022-09-04T08:04:51.121Z,2.70
2022-09-04T08:07:47.941Z,2.60
2022-09-04T08:10:31.588Z,2.80
2022-09-04T08:13:43.999Z,2.80
2022-09-04T08:16:23.987Z,2.50
2022-09-04T08:19:15.674Z,2.50
2022-09-04T08:21:50.948Z,2.30
2022-09-04T08:24:50.151Z,2.90
2022-09-04T08:27:40.493Z,2.60
2022-09-04T08:30:20.185Z,2.60
2022-09-04T08:33:18.738Z,2.50
2022-09-04T08:35:57.333Z,2.40
2022-09-04T08:38:46.123Z,2.50
2022-09-04T08:41:47.159Z,2.30
2022-09-04T08:44:53.563Z,3.00
2022-09-04T08:48:02.255Z,2.30
2022-09-04T08:50:57.978Z,2.70
2022-09-04T08:53:55.160Z,2.10
2022-09-04T08:56:36.304Z,2.30
2022-09-04T08:59:37.832Z,2.50
2022-09-04T09:02:42.511Z,2.10
2022-09-04T09:05:33.464Z,2.30
2022-09-04T09:08:38.836Z,2.40
2022-09-04T09:11:43.348Z,2.50
2022-09-04T09:14:48.415Z,2.20
2022-09-04T09:17:41.839Z,2.10
2022-09-04T09:20:28.841Z,2.10
2022-09-04T09:23:36.179Z,2.00
2022-09-04T09:26:31.106Z,2.10
2022-09-04T09:29:30.523Z,2.80
2022-09-04T09:32:37.069Z,2.20
2022-09-04T09:35:56.010Z,2.10
2022-09-04T09:38:58.865Z,2.20
2022-09-04T09:41:59.541Z,2.30
2022-09-04T09:45:00.324Z,2.40
2022-09-04T09:48:05.425Z,2.20
2022-09-04T09:51:03.274Z,2.30
2022-09-04T09:54:25.496Z,2.20
2022-09-04T09:57:33.535Z,2.40
2022-09-04T10:00:11.960Z,2.40
2022-09-04T10:03:12.113Z,2.10
2022-09-04T10:06:30.181Z,2.20
2022-09-04T10:09:34.611Z,2.40
2022-09-04T10:12:33.739Z,2.20
2022-09-04T10:15:48.882Z,4.10
2022-09-04T10:19:06.241Z,2.80
2022-09-04T10:22:11.766Z,2.90
2022-09-04T10:25:13.890Z,2.70
2022-09-04T10:28:12.488Z,2.90
2022-09-04T10:31:11.203Z,3.00
2022-09-04T10:34:00.890Z,3.00
2022-09-04T10:36:45.451Z,2.60
2022-09-04T10:39:45.718Z,2.90
2022-09-04T10:42:34.439Z,3.30
2022-09-04T10:45:22.179Z,2.70
2022-09-04T10:48:28.451Z,2.70
2022-09-04T10:51:15.702Z,2.90
2022-09-04T10:54:02.257Z,2.90
2022-09-04T10:56:51.265Z,3.00
2022-09-04T11:00:00.777Z,3.10
2022-09-04T11:03:08.047Z,2.90
2022-09-04T11:06:18.834Z,2.90
2022-09-04T11:09:16.141Z,2.90
2022-09-04T11:12:09.386Z,3.00
2022-09-04T11:14:59.653Z,2.90
2022-09-04T11:17:53.960Z,3.00
2022-09-04T11:21:09.297Z,2.90
2022-09-04T11:24:26.492Z,3.00
2022-09-04T11:27:47.753Z,3.40
2022-09-04T11:30:23.713Z,3.40
2022-09-04T11:33:33.189Z,3.70
2022-09-04T11:36:50.169Z,3.00
2022-09-04T11:39:47.066Z,3.30
2022-09-04T11:42:32.970Z,3.70
2022-09-04T11:45:41.399Z,3.60
2022-09-04T11:48:30.243Z,3.50
2022-09-04T11:51:20.086Z,3.20
2022-09-04T11:54:20.556Z,3.60
2022-09-04T11:57:08.159Z,3.10
2022-09-04T12:00:07.042Z,3.50
2022-09-04T12:03:10.399Z,3.70
2022-09-04T12:05:55.934Z,3.00
2022-09-04T12:09:00.866Z,3.10
2022-09-04T12:12:03.274Z,2.80
2022-09-04T12:14:49.637Z,3.00
2022-09-04T12:18:14.347Z,3.10
2022-09-04T12:21:23.312Z,3.20
2022-09-04T12:24:36.721Z,3.00
2022-09-04T12:27:35.023Z,3.20
2022-09-04T12:30:20.161Z,3.00
2022-09-04T12:33:24.563Z,3.40
2022-09-04T12:36:23.247Z,3.20
2022-09-04T12:39:25.645Z,3.10
2022-09-04T12:42:06.288Z,3.30
2022-09-04T12:44:51.376Z,3.60
2022-09-04T12:47:37.085Z,5.20
2022-09-04T12:50:28.354Z,11.70
2022-09-04T12:53:25.895Z,4.80
2022-09-04T12:56:06.059Z,3.10
2022-09-04T12:58:56.610Z,2.90
2022-09-04T13:01:39.568Z,3.10
2022-09-04T13:04:21.940Z,3.30
2022-09-04T13:07:16.006Z,3.20
2022-09-04T13:09:56.033Z,2.90
2022-09-04T13:12:38.599Z,2.90
2022-09-04T13:15:24.457Z,3.10
2022-09-04T13:18:08.292Z,4.10
2022-09-04T13:20:51.919Z,3.50
2022-09-04T13:23:37.437Z,2.80
2022-09-04T13:26:25.205Z,3.20
2022-09-04T13:29:16.919Z,3.50
2022-09-04T13:32:07.483Z,3.00
2022-09-04T13:34:58.621Z,3.00
2022-09-04T13:40:18.104Z,3.20
2022-09-04T13:43:18.755Z,2.90
2022-09-04T13:45:55.523Z,3.40
2022-09-04T13:48:38.372Z,3.40
2022-09-04T13:51:14.867Z,3.10
2022-09-04T13:53:59.602Z,2.80
2022-09-04T13:56:36.509Z,3.70
2022-09-04T13:59:11.936Z,3.20
2022-09-04T14:01:47.969Z,3.20
2022-09-04T14:04:26.313Z,3.20
2022-09-04T14:07:07.089Z,3.10
2022-09-04T14:09:44.734Z,3.20
2022-09-04T14:12:33.005Z,2.60
2022-09-04T14:15:32.839Z,3.30
2022-09-04T14:18:17.767Z,3.10
2022-09-04T14:21:01.278Z,3.30
2022-09-04T14:23:47.219Z,2.90
2022-09-04T14:26:29.000Z,2.90
2022-09-04T14:29:08.572Z,3.30
2022-09-04T14:31:49.367Z,3.00
2022-09-04T14:34:36.195Z,3.00
2022-09-04T14:37:19.817Z,3.30
2022-09-04T14:39:58.794Z,3.20
2022-09-04T14:42:47.711Z,3.20
2022-09-04T14:45:35.364Z,4.00
2022-09-04T14:48:11.409Z,3.40
2022-09-04T14:50:49.574Z,3.20
2022-09-04T14:53:27.313Z,3.20
2022-09-04T14:56:32.270Z,3.60
2022-09-04T14:59:14.839Z,3.40
2022-09-04T15:02:19.073Z,3.50
2022-09-04T15:04:56.461Z,3.60
2022-09-04T15:08:03.808Z,3.10
2022-09-04T15:10:49.906Z,3.50
2022-09-04T15:13:54.246Z,3.20
2022-09-04T15:16:44.261Z,3.40
2022-09-04T15:19:31.937Z,3.30
2022-09-04T15:22:10.831Z,3.20
2022-09-04T15:24:58.448Z,3.10
2022-09-04T15:27:40.743Z,3.50
2022-09-04T15:30:21.832Z,3.10
2022-09-04T15:33:06.489Z,3.30
2022-09-04T15:35:39.589Z,4.40
2022-09-04T15:38:20.639Z,4.10
2022-09-04T15:41:17.738Z,3.40
2022-09-04T15:43:55.575Z,4.10
2022-09-04T15:46:44.269Z,3.90
2022-09-04T15:49:32.427Z,4.40
2022-09-04T15:52:20.010Z,3.60
2022-09-04T15:55:11.695Z,3.60
2022-09-04T15:57:58.515Z,3.50
2022-09-04T16:00:34.073Z,4.00
2022-09-04T16:03:16.610Z,3.70
2022-09-04T16:05:53.989Z,3.70
2022-09-04T16:08:33.437Z,3.50
2022-09-04T16:11:11.724Z,3.30
2022-09-04T16:13:58.077Z,3.60
2022-09-04T16:16:35.656Z,3.40
2022-09-04T16:19:15.953Z,3.70
2022-09-04T16:21:55.564Z,3.60
2022-09-04T16:24:35.604Z,3.50
2022-09-04T16:27:12.254Z,3.10
2022-09-04T16:29:51.116Z,3.50
2022-09-04T16:32:25.761Z,3.30
2022-09-04T16:35:03.189Z,3.50
2022-09-04T16:37:42.460Z,3.40
2022-09-04T16:40:28.369Z,3.50
2022-09-04T16:43:09.632Z,3.70
2022-09-04T16:45:49.589Z,3.70
2022-09-04T16:48:34.606Z,4.00
2022-09-04T16:51:39.238Z,4.10
2022-09-04T16:54:16.288Z,4.40
2022-09-04T16:56:50.772Z,4.00
2022-09-04T16:59:30.783Z,3.60
2022-09-04T17:02:06.546Z,4.00
2022-09-04T17:04:42.662Z,3.70
2022-09-04T17:07:20.209Z,3.50
2022-09-04T17:10:01.693Z,3.80
2022-09-04T17:12:47.363Z,3.80
2022-09-04T17:15:32.746Z,4.20
2022-09-04T17:18:09.600Z,4.50
2022-09-04T17:21:34.869Z,3.90
2022-09-04T17:28:58.184Z,3.70
2022-09-04T17:29:10.109Z,3.60
2022-09-04T17:29:44.577Z,3.70
2022-09-04T17:33:39.578Z,4.00
2022-09-04T17:40:42.889Z,3.40
2022-09-04T17:40:56.843Z,3.60
2022-09-04T17:41:36.462Z,3.80
2022-09-04T17:44:31.808Z,5.10
2022-09-04T17:47:19.282Z,4.00
2022-09-04T17:49:57.249Z,4.00
2022-09-04T17:52:32.176Z,3.50
2022-09-04T17:55:11.915Z,3.80
2022-09-04T17:58:00.420Z,3.50
2022-09-04T18:00:35.484Z,3.90
2022-09-04T18:03:29.772Z,3.70
2022-09-04T18:06:10.456Z,3.90
2022-09-04T18:08:55.650Z,3.90
2022-09-04T18:11:34.421Z,3.60
2022-09-04T18:14:13.570Z,3.90
2022-09-04T18:17:12.787Z,3.70
2022-09-04T18:19:47.699Z,3.70
2022-09-04T18:22:31.852Z,4.00
2022-09-04T18:25:17.221Z,3.90
2022-09-04T18:28:11.666Z,3.80
2022-09-04T18:37:05.870Z,3.90
2022-09-04T18:37:16.433Z,5.20
2022-09-04T18:37:24.419Z,4.70
2022-09-04T18:40:07.139Z,4.20
2022-09-04T18:50:17.468Z,4.20
2022-09-04T18:50:30.864Z,5.10
2022-09-04T18:50:32.525Z,5.50
2022-09-04T18:51:51.112Z,5.20
2022-09-04T18:54:28.292Z,6.20
2022-09-04T18:57:13.758Z,5.60
2022-09-04T18:59:55.743Z,5.70
2022-09-04T19:02:52.858Z,5.50
2022-09-04T19:05:44.821Z,5.20
2022-09-04T19:10:56.506Z,5.00
2022-09-04T19:13:34.731Z,5.30
2022-09-04T19:16:12.347Z,4.80
2022-09-04T19:18:52.470Z,4.90
2022-09-04T19:21:32.357Z,5.00
2022-09-04T19:24:28.679Z,5.20
2022-09-04T19:27:26.502Z,5.00
2022-09-04T19:30:18.014Z,5.00
2022-09-04T19:35:38.721Z,4.70
2022-09-04T19:42:02.957Z,4.80
2022-09-04T19:46:03.654Z,5.10
2022-09-04T19:46:16.323Z,5.00
2022-09-04T19:47:29.614Z,5.30
2022-09-04T19:53:19.942Z,5.10
2022-09-04T19:53:37.928Z,5.40
2022-09-04T19:56:21.928Z,4.80
2022-09-04T19:59:11.267Z,5.20
2022-09-04T20:01:47.766Z,4.90
2022-09-04T20:04:38.587Z,4.70
2022-09-04T20:07:31.303Z,4.70
2022-09-04T20:10:16.637Z,4.80
2022-09-04T20:12:51.379Z,5.50
2022-09-04T20:15:31.441Z,5.00
2022-09-04T20:18:12.507Z,4.80
2022-09-04T20:20:54.850Z,4.60
2022-09-04T20:23:39.052Z,4.70
2022-09-04T20:26:21.289Z,5.20
2022-09-04T20:29:09.504Z,4.90
2022-09-04T20:31:57.617Z,5.10
2022-09-04T20:34:41.126Z,4.80
2022-09-04T20:37:32.455Z,4.70
2022-09-04T20:42:56.500Z,4.80
2022-09-04T20:50:00.615Z,4.70
2022-09-04T20:52:52.983Z,4.80
2022-09-04T20:52:59.186Z,4.80
2022-09-04T20:54:45.497Z,4.40
2022-09-04T20:59:35.936Z,5.00
2022-09-04T21:03:11.087Z,5.20
2022-09-04T21:03:35.183Z,4.90
2022-09-04T21:06:26.626Z,4.80
2022-09-04T21:09:07.618Z,5.20
2022-09-04T21:11:43.656Z,5.50
2022-09-04T21:14:21.753Z,5.10
2022-09-04T21:17:35.171Z,5.40
2022-09-04T21:20:27.094Z,5.00
2022-09-04T21:25:50.281Z,4.30
2022-09-04T21:28:34.554Z,5.60
2022-09-04T21:31:21.022Z,4.40
2022-09-04T21:34:13.668Z,5.00
2022-09-04T21:36:54.839Z,4.90
2022-09-04T21:39:58.573Z,5.50
2022-09-04T21:43:05.659Z,5.00
2022-09-04T21:45:53.353Z,5.20
2022-09-04T21:48:40.919Z,5.00
2022-09-04T21:51:30.658Z,5.00
2022-09-04T21:55:42.532Z,5.20
2022-09-04T22:02:29.348Z,5.10
2022-09-04T22:02:37.438Z,4.90
2022-09-04T22:03:44.674Z,4.80
2022-09-04T22:06:49.452Z,5.40
2022-09-04T22:13:29.561Z,4.80
2022-09-04T22:13:39.417Z,5.10
2022-09-04T22:15:46.871Z,5.10
2022-09-04T22:18:41.554Z,5.60
2022-09-04T22:21:36.845Z,5.50
2022-09-04T22:24:27.675Z,5.70
2022-09-04T22:27:29.461Z,5.30
2022-09-04T22:30:15.180Z,6.20
2022-09-04T22:36:13.306Z,5.70
2022-09-04T22:39:14.728Z,5.70
2022-09-04T22:42:06.931Z,5.50
2022-09-04T22:45:09.671Z,7.60
2022-09-04T22:50:50.860Z,7.40
2022-09-04T22:53:40.331Z,6.70
2022-09-04T22:56:24.107Z,6.70
2022-09-04T22:59:26.930Z,6.80
2022-09-04T23:03:04.227Z,6.70
2022-09-04T23:06:08.810Z,6.70
2022-09-04T23:13:48.668Z,7.10
2022-09-04T23:13:56.569Z,7.40
2022-09-04T23:15:37.343Z,6.90
2022-09-04T23:19:19.111Z,6.90
2022-09-04T23:26:33.101Z,8.30
2022-09-04T23:26:53.586Z,8.20
2022-09-04T23:28:15.482Z,7.40
2022-09-04T23:31:13.294Z,7.50
2022-09-04T23:34:39.114Z,6.50
2022-09-04T23:37:47.599Z,7.70
2022-09-04T23:40:51.338Z,7.70
2022-09-04T23:44:06.461Z,7.30
2022-09-04T23:47:20.392Z,7.90
2022-09-04T23:50:33.555Z,7.30
2022-09-04T23:53:36.855Z,7.50
2022-09-04T23:56:32.318Z,6.90
2022-09-04T23:59:37.605Z,7.40
